createdAt,value
2023-08-06T00:03:09.517Z,6.80
2023-08-06T00:08:11.650Z,6.57
2023-08-06T00:13:12.484Z,7.28
2023-08-06T00:18:13.201Z,7.40
2023-08-06T00:23:15.281Z,7.07
2023-08-06T00:28:16.111Z,7.15
2023-08-06T00:33:16.806Z,7.00
2023-08-06T00:38:19.005Z,5.82
2023-08-06T00:43:19.715Z,7.13
2023-08-06T00:48:21.138Z,6.60
2023-08-06T00:53:23.311Z,6.22
2023-08-06T00:58:24.185Z,6.45
2023-08-06T01:03:24.937Z,6.53
2023-08-06T01:08:39.794Z,7.40
2023-08-06T01:13:44.593Z,7.60
2023-08-06T01:18:47.418Z,8.23
2023-08-06T01:23:50.270Z,7.45
2023-08-06T01:28:58.388Z,7.68
2023-08-06T01:34:01.619Z,7.05
2023-08-06T01:39:03.809Z,7.70
2023-08-06T01:44:04.586Z,8.10
2023-08-06T01:49:06.276Z,7.68
2023-08-06T01:54:08.365Z,7.50
2023-08-06T01:59:09.076Z,7.18
2023-08-06T02:04:10.115Z,8.55
2023-08-06T02:09:12.193Z,8.18
2023-08-06T02:14:13.022Z,7.70
2023-08-06T02:19:14.529Z,7.65
2023-08-06T02:24:19.457Z,7.50
2023-08-06T02:29:20.304Z,7.25
2023-08-06T02:34:21.009Z,7.43
2023-08-06T02:39:23.095Z,6.85
2023-08-06T02:44:24.099Z,7.65
2023-08-06T02:49:24.832Z,6.72
2023-08-06T02:54:27.015Z,6.50
2023-08-06T02:59:27.956Z,6.13
2023-08-06T03:04:48.963Z,6.68
2023-08-06T03:09:52.466Z,7.05
2023-08-06T03:14:53.278Z,5.88
2023-08-06T03:19:54.842Z,6.80
2023-08-06T03:24:57.129Z,6.45
2023-08-06T03:30:02.092Z,6.32
2023-08-06T03:35:03.471Z,6.80
2023-08-06T03:40:08.179Z,6.70
2023-08-06T03:45:10.860Z,6.82
2023-08-06T03:50:13.765Z,6.47
2023-08-06T03:55:16.798Z,6.40
2023-08-06T04:00:17.882Z,6.35
2023-08-06T04:05:24.814Z,6.32
2023-08-06T04:10:26.890Z,5.78
2023-08-06T04:15:27.675Z,6.07
2023-08-06T04:20:28.392Z,6.10
2023-08-06T04:25:30.430Z,5.80
2023-08-06T04:30:31.376Z,4.65
2023-08-06T04:35:32.359Z,4.85
2023-08-06T04:40:37.780Z,4.35
2023-08-06T04:45:39.054Z,4.63
2023-08-06T04:50:39.788Z,4.72
2023-08-06T04:55:42.099Z,4.22
2023-08-06T05:00:42.960Z,4.45
2023-08-06T05:05:43.808Z,4.72
2023-08-06T05:10:46.509Z,3.80
2023-08-06T05:15:48.400Z,4.72
2023-08-06T05:20:49.887Z,4.18
2023-08-06T05:25:51.960Z,4.60
2023-08-06T05:30:52.677Z,4.53
2023-08-06T05:35:53.415Z,4.95
2023-08-06T05:40:56.258Z,4.35
2023-08-06T05:45:58.245Z,4.10
2023-08-06T05:50:59.883Z,4.00
2023-08-06T05:56:01.978Z,3.97
2023-08-06T06:01:02.772Z,4.07
2023-08-06T06:06:03.900Z,4.20
2023-08-06T06:11:05.989Z,4.10
2023-08-06T06:16:07.293Z,3.72
2023-08-06T06:21:08.058Z,4.18
2023-08-06T06:26:11.037Z,4.07
2023-08-06T06:31:12.041Z,4.82
2023-08-06T06:36:15.133Z,4.68
2023-08-06T06:41:17.387Z,4.28
2023-08-06T06:46:20.340Z,4.47
2023-08-06T06:51:21.225Z,4.03
2023-08-06T06:56:23.324Z,3.90
2023-08-06T07:01:24.069Z,4.45
2023-08-06T07:06:24.889Z,3.72
2023-08-06T07:11:27.029Z,4.25
2023-08-06T07:16:28.251Z,4.28
2023-08-06T07:21:29.026Z,3.78
2023-08-06T07:26:31.150Z,4.90
2023-08-06T07:31:31.935Z,4.80
2023-08-06T07:36:33.147Z,4.95
2023-08-06T07:41:35.253Z,5.40
2023-08-06T07:46:36.047Z,4.88
2023-08-06T07:51:36.827Z,5.20
2023-08-06T07:56:38.966Z,4.68
2023-08-06T08:01:39.748Z,4.57
2023-08-06T08:06:40.993Z,5.05
2023-08-06T08:11:43.692Z,4.57
2023-08-06T08:16:44.631Z,4.38
2023-08-06T08:21:45.377Z,4.78
2023-08-06T08:26:47.564Z,4.47
2023-08-06T08:31:50.283Z,3.95
2023-08-06T08:36:51.122Z,3.40
2023-08-06T08:41:53.554Z,3.63
2023-08-06T08:46:54.741Z,2.70
2023-08-06T08:51:56.713Z,2.83
2023-08-06T08:56:59.199Z,2.00
2023-08-06T09:02:02.617Z,3.05
2023-08-06T09:07:04.278Z,2.42
2023-08-06T09:12:13.304Z,2.40
2023-08-06T09:17:14.121Z,2.35
2023-08-06T09:22:15.209Z,2.38
2023-08-06T09:27:17.475Z,2.30
2023-08-06T09:32:18.229Z,2.47
2023-08-06T09:37:18.967Z,2.47
2023-08-06T09:42:21.064Z,2.80
2023-08-06T09:47:23.919Z,2.80
2023-08-06T09:52:24.805Z,2.92
2023-08-06T09:57:27.859Z,3.08
2023-08-06T10:02:29.169Z,2.85
2023-08-06T10:07:32.113Z,2.50
2023-08-06T10:12:36.626Z,3.10
2023-08-06T10:17:50.284Z,2.90
2023-08-06T10:23:03.112Z,2.80
2023-08-06T10:28:11.515Z,2.08
2023-08-06T10:33:12.290Z,2.20
2023-08-06T10:38:15.349Z,2.53
2023-08-06T10:43:28.982Z,2.08
2023-08-06T10:48:32.349Z,2.50
2023-08-06T10:53:34.623Z,2.53
2023-08-06T10:58:36.982Z,2.63
2023-08-06T11:03:38.261Z,1.90
2023-08-06T11:08:40.397Z,1.70
2023-08-06T11:13:42.523Z,2.10
2023-08-06T11:18:43.455Z,1.77
2023-08-06T11:23:45.395Z,2.00
2023-08-06T11:28:47.441Z,1.65
2023-08-06T11:33:48.337Z,1.70
2023-08-06T11:38:50.218Z,1.98
2023-08-06T11:43:52.386Z,2.13
2023-08-06T11:48:54.205Z,2.05
2023-08-06T11:53:59.008Z,2.00
2023-08-06T11:59:01.454Z,2.00
2023-08-06T12:04:02.482Z,2.30
2023-08-06T12:09:03.482Z,1.83
2023-08-06T12:14:05.574Z,2.00
2023-08-06T12:19:06.425Z,2.20
2023-08-06T12:24:08.746Z,1.73
2023-08-06T12:29:10.845Z,2.05
2023-08-06T12:34:11.647Z,2.10
2023-08-06T12:39:17.414Z,1.98
2023-08-06T12:44:19.623Z,2.20
2023-08-06T12:49:22.062Z,2.20
2023-08-06T12:54:23.064Z,2.67
2023-08-06T12:59:25.149Z,2.20
2023-08-06T13:04:26.107Z,2.00
2023-08-06T13:09:27.156Z,2.08
2023-08-06T13:14:29.712Z,2.35
2023-08-06T13:19:30.732Z,2.28
2023-08-06T13:24:31.691Z,1.90
2023-08-06T13:29:33.746Z,1.88
2023-08-06T13:34:34.504Z,1.92
2023-08-06T13:39:35.229Z,1.60
2023-08-06T13:44:37.852Z,1.77
2023-08-06T13:49:38.627Z,1.70
2023-08-06T13:54:39.326Z,1.42
2023-08-06T13:59:42.264Z,1.88
2023-08-06T14:04:43.039Z,1.60
2023-08-06T14:09:45.242Z,1.48
2023-08-06T14:14:47.378Z,1.60
2023-08-06T14:19:48.085Z,1.45
2023-08-06T15:12:28.291Z,1.60
2023-08-06T15:17:30.271Z,1.75
2023-08-06T15:22:32.629Z,2.00
2023-08-06T15:27:36.225Z,2.30
2023-08-06T15:32:37.157Z,1.95
2023-08-06T15:37:38.046Z,3.03
2023-08-06T15:42:40.116Z,2.65
2023-08-06T15:47:41.818Z,2.30
2023-08-06T15:52:42.799Z,2.67
2023-08-06T15:57:45.023Z,3.53
2023-08-06T16:02:46.544Z,3.97
2023-08-06T16:07:47.295Z,5.50
2023-08-06T16:12:49.454Z,5.47
2023-08-06T16:17:50.248Z,5.78
2023-08-06T16:22:51.102Z,6.22
2023-08-06T16:27:53.513Z,6.00
2023-08-06T16:32:54.293Z,6.20
2023-08-06T16:37:55.039Z,6.88
2023-08-06T16:42:57.100Z,6.95
2023-08-06T16:47:57.875Z,8.02
2023-08-06T16:52:58.746Z,7.95
2023-08-06T16:58:00.911Z,8.90
2023-08-06T17:03:01.765Z,8.93
2023-08-06T17:08:02.552Z,9.00
2023-08-06T17:13:14.367Z,8.45
2023-08-06T17:18:20.509Z,8.50
2023-08-06T17:23:21.243Z,8.23
2023-08-06T17:28:23.445Z,8.85
2023-08-06T17:33:24.301Z,9.15
2023-08-06T17:38:25.163Z,9.40
2023-08-06T17:43:27.266Z,9.45
2023-08-06T17:48:28.178Z,9.98
2023-08-06T17:53:28.933Z,10.00
2023-08-06T17:58:31.324Z,9.82
2023-08-06T18:03:32.434Z,8.55
2023-08-06T18:08:35.399Z,9.23
2023-08-06T18:13:37.500Z,9.90
2023-08-06T18:18:38.373Z,10.23
2023-08-06T18:23:39.728Z,3.05
2023-08-06T18:28:45.252Z,2.00
2023-08-06T18:33:46.005Z,1.58
2023-08-06T18:38:50.533Z,2.22
2023-08-06T18:43:53.162Z,3.45
2023-08-06T18:48:53.907Z,3.20
2023-08-06T18:53:54.679Z,2.40
2023-08-06T18:58:56.763Z,2.88
2023-08-06T19:03:57.677Z,2.33
2023-08-06T19:08:58.623Z,2.30
2023-08-06T19:14:00.903Z,2.72
2023-08-06T19:19:01.660Z,2.35
2023-08-06T19:24:02.495Z,2.40
2023-08-06T19:29:05.588Z,2.15
2023-08-06T19:34:06.393Z,3.30
2023-08-06T19:39:07.352Z,2.90
2023-08-06T19:44:09.569Z,3.42
2023-08-06T19:49:10.335Z,2.85
2023-08-06T19:54:12.053Z,2.60
2023-08-06T19:59:14.137Z,2.80
2023-08-06T20:04:14.832Z,3.30
2023-08-06T20:09:16.602Z,3.22
2023-08-06T20:14:18.653Z,3.00
2023-08-06T20:19:19.401Z,3.00
2023-08-06T20:24:20.212Z,3.13
2023-08-06T20:29:22.352Z,3.28
2023-08-06T20:34:23.096Z,3.65
2023-08-06T20:39:23.823Z,2.78
2023-08-06T20:44:27.697Z,3.30
2023-08-06T20:49:28.903Z,2.97
2023-08-06T20:54:29.611Z,2.88
2023-08-06T20:59:31.781Z,2.78
2023-08-06T21:04:32.542Z,2.72
2023-08-06T21:09:33.382Z,2.80
2023-08-06T21:14:35.485Z,3.10
2023-08-06T21:19:36.252Z,3.20
2023-08-06T21:24:36.972Z,2.90
2023-08-06T21:29:39.037Z,3.00
2023-08-06T21:34:39.851Z,3.40
2023-08-06T21:39:40.583Z,3.00
2023-08-06T21:44:42.688Z,2.70
2023-08-06T21:49:43.385Z,2.90
2023-08-06T21:54:44.072Z,2.60
2023-08-06T21:59:46.172Z,2.40
2023-08-06T22:04:46.880Z,2.58
2023-08-06T22:09:47.592Z,2.08
2023-08-06T22:14:49.655Z,1.98
2023-08-06T22:19:50.395Z,2.20
2023-08-06T22:24:51.274Z,2.10
2023-08-06T22:29:53.323Z,1.95
2023-08-06T22:34:54.020Z,1.60
2023-08-06T22:39:59.216Z,1.80
2023-08-06T22:45:01.302Z,1.23
2023-08-06T22:50:02.157Z,1.65
2023-08-06T22:55:14.924Z,1.80
2023-08-06T23:00:25.101Z,1.65
2023-08-06T23:05:25.871Z,1.45
2023-08-06T23:10:26.821Z,1.63
2023-08-06T23:15:28.925Z,1.48
2023-08-06T23:20:29.815Z,1.70
2023-08-06T23:25:30.611Z,1.83
2023-08-06T23:30:33.157Z,1.90
2023-08-06T23:35:33.892Z,2.15
2023-08-06T23:40:34.682Z,2.58
2023-08-06T23:45:36.726Z,2.45
2023-08-06T23:50:37.473Z,2.65
2023-08-06T23:55:38.266Z,1.95
